Terminal Aerodrome Forecast
Issued by NWS Portland, OR

Home | Current Version | Previous Version | Text Only | Print | Product List | Glossary On
Versions: 1 2 3 4 5 6 7 8 9 10 11 12 13 14 15 16 17 18 19 20 21 22 23 24 25 26 27 28 29 30 31 32 33 34 35
000
FTUS46 KPQR 211728
TAFSLE
TAF
KSLE 211728Z 2118/2218 18012G18KT P6SM VCSH FEW025 BKN080
     FM212000 17014G20KT P6SM -RA SCT030 OVC045
     FM220500 18014G25KT P6SM -RA SCT035 OVC060
     FM221600 17014G25KT 5SM RA OVC035=

USA.gov is the U.S. government's official web portal to all federal, state and local government web resources and services.